createdAt,value
2018-11-14T00:00:47.915Z,9.03
2018-11-14T00:03:16.515Z,8.63
2018-11-14T00:05:44.674Z,8.80
2018-11-14T00:08:13.239Z,8.97
2018-11-14T00:10:41.389Z,7.80
2018-11-14T00:13:09.587Z,8.97
2018-11-14T00:15:37.826Z,8.30
2018-11-14T00:18:06.032Z,8.27
2018-11-14T00:20:35.166Z,8.40
2018-11-14T00:23:03.457Z,8.40
2018-11-14T00:25:31.610Z,9.43
2018-11-14T00:27:59.973Z,7.97
2018-11-14T00:30:31.354Z,8.97
2018-11-14T00:32:59.650Z,8.30
2018-11-14T00:35:27.867Z,7.40
2018-11-14T00:37:56.296Z,8.67
2018-11-14T00:40:24.454Z,8.83
2018-11-14T00:42:52.651Z,9.33
2018-11-14T00:45:21.955Z,9.97
2018-11-14T00:47:50.454Z,11.47
2018-11-14T00:50:19.817Z,9.47
2018-11-14T00:52:47.990Z,8.60
2018-11-14T00:55:18.330Z,7.93
2018-11-14T00:57:47.573Z,11.10
2018-11-14T01:00:18.276Z,11.77
2018-11-14T01:02:46.544Z,10.83
2018-11-14T01:05:15.482Z,8.70
2018-11-14T01:07:43.653Z,9.33
2018-11-14T01:10:13.621Z,10.87
2018-11-14T01:12:42.083Z,12.23
2018-11-14T01:15:12.530Z,11.43
2018-11-14T01:17:41.119Z,10.87
2018-11-14T01:20:11.958Z,10.10
2018-11-14T01:22:42.658Z,9.80
2018-11-14T01:25:12.515Z,10.17
2018-11-14T01:27:41.240Z,9.33
2018-11-14T01:30:14.112Z,8.43
2018-11-14T01:32:44.743Z,8.10
2018-11-14T01:35:13.794Z,7.97
2018-11-14T01:37:42.410Z,7.80
2018-11-14T01:40:25.949Z,9.00
2018-11-14T01:42:55.314Z,9.60
2018-11-14T01:45:23.515Z,9.70
2018-11-14T01:47:51.710Z,8.80
2018-11-14T01:50:20.219Z,8.63
2018-11-14T01:52:48.680Z,7.37
2018-11-14T01:55:19.770Z,9.37
2018-11-14T01:57:48.575Z,11.40
2018-11-14T02:00:18.817Z,11.70
2018-11-14T02:02:47.051Z,11.90
2018-11-14T02:05:15.266Z,12.07
2018-11-14T02:07:50.828Z,13.63
2018-11-14T02:10:20.011Z,14.13
2018-11-14T02:12:48.328Z,11.97
2018-11-14T02:15:17.876Z,10.60
2018-11-14T02:17:46.061Z,11.23
2018-11-14T02:20:14.685Z,10.20
2018-11-14T02:22:43.584Z,11.03
2018-11-14T02:25:12.343Z,12.83
2018-11-14T02:27:41.013Z,13.87
2018-11-14T02:30:19.400Z,13.53
2018-11-14T02:32:48.326Z,13.07
2018-11-14T02:35:16.706Z,13.13
2018-11-14T02:37:45.664Z,12.63
2018-11-14T02:40:15.187Z,12.83
2018-11-14T02:42:44.125Z,12.10
2018-11-14T02:45:14.425Z,12.20
2018-11-14T02:47:42.642Z,11.10
2018-11-14T02:50:12.050Z,11.10
2018-11-14T02:52:40.273Z,10.77
2018-11-14T02:55:09.702Z,11.63
2018-11-14T02:57:37.887Z,12.53
2018-11-14T03:00:08.397Z,12.20
2018-11-14T03:02:37.031Z,14.43
2018-11-14T03:05:06.245Z,13.23
2018-11-14T03:07:34.750Z,15.80
2018-11-14T03:10:03.438Z,16.70
2018-11-14T03:12:31.780Z,17.27
2018-11-14T03:14:59.968Z,15.77
2018-11-14T03:17:28.182Z,18.13
2018-11-14T03:22:39.468Z,16.53
2018-11-14T03:25:08.324Z,20.27
2018-11-14T03:27:37.290Z,19.13
2018-11-14T03:30:08.727Z,25.40
2018-11-14T03:32:36.962Z,30.63
2018-11-14T03:35:05.974Z,18.77
2018-11-14T03:37:34.202Z,19.43
2018-11-14T03:40:02.454Z,15.70
2018-11-14T03:42:30.708Z,15.93
2018-11-14T03:44:58.936Z,14.60
2018-11-14T03:47:27.139Z,14.73
2018-11-14T03:49:56.090Z,18.60
2018-11-14T03:52:25.121Z,10.83
2018-11-14T03:54:54.955Z,11.20
2018-11-14T03:57:23.117Z,18.87
2018-11-14T03:59:51.358Z,17.60
2018-11-14T04:02:19.671Z,14.90
2018-11-14T04:04:48.003Z,15.10
2018-11-14T04:07:17.063Z,15.43
2018-11-14T04:09:45.222Z,14.83
2018-11-14T04:12:14.235Z,15.57
2018-11-14T04:14:42.453Z,14.37
2018-11-14T04:17:10.690Z,13.93
2018-11-14T04:19:38.911Z,14.97
2018-11-14T04:22:07.131Z,13.33
2018-11-14T04:24:37.250Z,14.10
2018-11-14T04:27:05.424Z,13.63
2018-11-14T04:29:33.931Z,11.67
2018-11-14T04:32:02.309Z,13.27
2018-11-14T04:34:30.489Z,18.93
2018-11-14T04:36:58.710Z,16.63
2018-11-14T04:39:29.670Z,13.07
2018-11-14T04:41:57.938Z,12.27
2018-11-14T04:44:26.124Z,12.00
2018-11-14T04:46:54.302Z,11.30
2018-11-14T04:49:22.507Z,10.40
2018-11-14T04:51:50.718Z,10.57
2018-11-14T04:54:18.887Z,11.83
2018-11-14T04:56:47.425Z,11.63
2018-11-14T04:59:15.649Z,11.27
2018-11-14T05:01:43.807Z,11.67
2018-11-14T05:04:12.079Z,15.03
2018-11-14T05:06:40.270Z,13.00
2018-11-14T05:09:10.317Z,12.63
2018-11-14T05:11:38.526Z,13.90
2018-11-14T05:14:07.196Z,14.73
2018-11-14T05:16:35.356Z,14.60
2018-11-14T05:19:03.582Z,15.10
2018-11-14T05:21:31.838Z,11.57
2018-11-14T05:24:00.654Z,14.87
2018-11-14T05:26:28.862Z,14.40
2018-11-14T05:28:57.434Z,15.23
2018-11-14T05:31:25.854Z,18.77
2018-11-14T05:33:54.108Z,14.73
2018-11-14T05:36:22.330Z,13.87
2018-11-14T05:38:50.526Z,14.33
2018-11-14T05:41:18.746Z,13.43
2018-11-14T05:43:47.117Z,15.10
2018-11-14T05:46:15.770Z,13.57
2018-11-14T05:48:43.950Z,13.47
2018-11-14T05:51:12.345Z,15.73
2018-11-14T05:53:40.524Z,16.83
2018-11-14T05:56:08.707Z,19.60
2018-11-14T05:58:37.058Z,16.87
2018-11-14T06:01:05.546Z,16.07
2018-11-14T06:03:33.762Z,22.43
2018-11-14T06:06:02.106Z,18.63
2018-11-14T06:08:32.114Z,17.70
2018-11-14T06:11:00.319Z,15.97
2018-11-14T06:13:28.521Z,12.80
2018-11-14T06:15:56.766Z,14.07
2018-11-14T06:18:24.986Z,13.23
2018-11-14T06:20:53.925Z,12.43
2018-11-14T06:23:22.160Z,12.87
2018-11-14T06:25:50.362Z,12.00
2018-11-14T06:28:18.838Z,11.53
2018-11-14T06:30:47.010Z,14.87
2018-11-14T06:33:15.214Z,14.43
2018-11-14T06:35:43.447Z,11.33
2018-11-14T06:38:11.687Z,14.33
2018-11-14T06:40:39.881Z,12.57
2018-11-14T06:43:08.098Z,11.70
2018-11-14T06:45:37.306Z,14.23
2018-11-14T06:48:05.863Z,17.27
2018-11-14T06:50:34.054Z,17.47
2018-11-14T06:53:05.222Z,20.50
2018-11-14T06:55:34.052Z,16.20
2018-11-14T06:58:02.503Z,19.80
2018-11-14T07:00:31.809Z,20.67
2018-11-14T07:03:00.955Z,18.33
2018-11-14T07:05:29.425Z,21.07
2018-11-14T07:07:57.590Z,16.93
2018-11-14T07:10:28.518Z,18.40
2018-11-14T07:13:12.305Z,14.97
2018-11-14T07:15:41.119Z,18.57
2018-11-14T07:18:10.036Z,17.70
2018-11-14T07:20:39.835Z,18.33
2018-11-14T07:23:08.046Z,18.73
2018-11-14T07:25:36.289Z,18.90
2018-11-14T07:28:04.462Z,19.07
2018-11-14T07:30:33.502Z,13.93
2018-11-14T07:33:07.099Z,14.80
2018-11-14T07:35:36.261Z,18.57
2018-11-14T07:38:38.498Z,17.00
2018-11-14T07:41:08.299Z,15.77
2018-11-14T07:43:37.341Z,15.03
2018-11-14T07:46:05.975Z,18.97
2018-11-14T07:48:34.458Z,19.03
2018-11-14T07:51:02.988Z,16.20
2018-11-14T07:53:31.279Z,16.50
2018-11-14T07:55:59.478Z,21.73
2018-11-14T07:58:27.728Z,19.63
2018-11-14T08:00:56.722Z,18.33
2018-11-14T08:03:25.343Z,17.40
2018-11-14T08:05:53.858Z,17.47
2018-11-14T08:08:22.663Z,18.07
2018-11-14T08:10:50.851Z,18.33
2018-11-14T08:13:22.435Z,19.13
2018-11-14T08:15:52.066Z,18.23
2018-11-14T08:18:20.763Z,20.30
2018-11-14T08:20:49.490Z,22.47
2018-11-14T08:23:17.776Z,20.17
2018-11-14T08:25:46.003Z,23.10
2018-11-14T08:28:14.873Z,21.43
2018-11-14T08:30:43.485Z,24.87
2018-11-14T08:33:11.639Z,22.50
2018-11-14T08:35:39.891Z,19.80
2018-11-14T08:38:08.166Z,17.23
2018-11-14T08:40:36.394Z,18.77
2018-11-14T08:43:05.743Z,20.90
2018-11-14T08:45:34.162Z,22.70
2018-11-14T08:48:02.791Z,19.47
2018-11-14T08:50:31.048Z,21.57
2018-11-14T08:52:59.267Z,17.50
2018-11-14T08:55:31.394Z,20.17
2018-11-14T08:58:00.257Z,19.00
2018-11-14T09:00:28.869Z,18.43
2018-11-14T09:02:57.083Z,23.07
2018-11-14T09:05:25.559Z,21.33
2018-11-14T09:07:53.827Z,22.40
2018-11-14T09:10:23.114Z,21.10
2018-11-14T09:12:51.396Z,20.93
2018-11-14T09:15:20.701Z,18.97
2018-11-14T09:17:48.946Z,20.73
2018-11-14T09:20:18.527Z,22.23
2018-11-14T09:22:46.822Z,26.73
2018-11-14T09:25:24.625Z,23.00
2018-11-14T09:27:52.827Z,24.93
2018-11-14T09:30:22.127Z,18.67
2018-11-14T09:32:50.359Z,16.37
2018-11-14T09:35:19.656Z,19.37
2018-11-14T09:37:47.965Z,19.57
2018-11-14T09:40:17.593Z,18.07
2018-11-14T09:42:45.843Z,16.83
2018-11-14T09:45:19.263Z,21.70
2018-11-14T09:47:47.478Z,17.73
2018-11-14T09:50:17.087Z,16.03
2018-11-14T09:52:46.570Z,15.77
2018-11-14T09:55:15.055Z,12.57
2018-11-14T09:57:43.790Z,15.23
2018-11-14T10:00:19.158Z,15.33
2018-11-14T10:02:48.545Z,13.17
2018-11-14T10:05:18.529Z,12.43
2018-11-14T10:07:48.792Z,12.13
2018-11-14T10:10:18.602Z,11.63
2018-11-14T10:12:46.974Z,13.77
2018-11-14T10:15:18.522Z,13.57
2018-11-14T10:17:47.255Z,12.47
2018-11-14T10:20:16.705Z,13.43
2018-11-14T10:22:45.304Z,12.77
2018-11-14T10:25:14.244Z,11.50
2018-11-14T10:27:43.074Z,11.87
2018-11-14T10:30:13.769Z,9.77
2018-11-14T10:32:43.084Z,12.47
2018-11-14T10:35:11.680Z,10.87
2018-11-14T10:37:40.687Z,11.93
2018-11-14T10:40:12.396Z,12.03
2018-11-14T10:42:42.511Z,12.10
2018-11-14T10:45:12.296Z,13.27
2018-11-14T10:47:41.187Z,11.83
2018-11-14T10:50:14.921Z,11.10
2018-11-14T10:52:43.126Z,11.77
2018-11-14T10:55:13.062Z,11.40
2018-11-14T10:57:41.274Z,13.60
2018-11-14T11:00:18.605Z,12.23
2018-11-14T11:02:52.265Z,12.57
2018-11-14T11:05:25.753Z,12.00
2018-11-14T11:07:59.564Z,11.20
2018-11-14T11:10:33.119Z,11.60
2018-11-14T11:13:16.061Z,13.63
2018-11-14T11:15:50.055Z,13.10
2018-11-14T11:18:19.692Z,13.77
2018-11-14T11:20:48.126Z,12.60
2018-11-14T11:23:16.367Z,14.37
2018-11-14T11:25:44.555Z,14.53
2018-11-14T11:28:12.923Z,15.00
2018-11-14T11:30:41.273Z,14.97
2018-11-14T11:33:09.467Z,16.30
2018-11-14T11:35:37.706Z,16.10
2018-11-14T11:38:06.196Z,16.87
2018-11-14T11:40:34.621Z,18.23
2018-11-14T11:43:04.032Z,19.23
2018-11-14T11:45:32.995Z,20.10
2018-11-14T11:48:01.375Z,22.37
2018-11-14T11:50:30.241Z,25.27
2018-11-14T11:52:58.711Z,28.13
2018-11-14T11:55:26.917Z,28.13
2018-11-14T11:57:55.307Z,28.53
2018-11-14T12:00:23.554Z,28.60
2018-11-14T12:02:51.950Z,27.73
2018-11-14T12:05:20.195Z,28.47
2018-11-14T12:07:48.354Z,27.73
2018-11-14T12:10:16.602Z,30.13
2018-11-14T12:12:45.607Z,29.73
2018-11-14T12:15:14.720Z,31.53
2018-11-14T12:17:43.354Z,31.53
2018-11-14T12:20:13.157Z,31.97
2018-11-14T12:22:42.171Z,30.53
2018-11-14T12:25:12.498Z,31.27
2018-11-14T12:27:40.736Z,32.93
2018-11-14T12:30:14.071Z,32.43
2018-11-14T12:32:42.764Z,36.83
2018-11-14T12:35:12.958Z,25.27
2018-11-14T12:37:41.223Z,23.63
2018-11-14T12:40:10.441Z,25.33
2018-11-14T12:42:38.962Z,26.50
2018-11-14T12:45:09.495Z,26.43
2018-11-14T12:47:37.794Z,26.47
2018-11-14T12:50:06.562Z,28.47
2018-11-14T12:52:34.835Z,26.17
2018-11-14T12:55:03.033Z,33.23
2018-11-14T12:57:31.583Z,23.30
2018-11-14T12:59:59.821Z,24.60
2018-11-14T13:02:28.360Z,29.87
2018-11-14T13:04:56.575Z,31.67
2018-11-14T13:07:24.768Z,28.53
2018-11-14T13:09:53.050Z,26.03
2018-11-14T13:12:21.235Z,34.37
2018-11-14T13:14:49.673Z,29.23
2018-11-14T13:17:18.060Z,26.63
2018-11-14T13:19:46.287Z,29.50
2018-11-14T13:22:14.658Z,27.97
2018-11-14T13:24:43.091Z,27.80
2018-11-14T13:27:13.073Z,28.20
2018-11-14T13:29:41.362Z,30.23
2018-11-14T13:32:09.584Z,31.80
2018-11-14T13:34:37.779Z,32.77
2018-11-14T13:37:08.028Z,31.27
2018-11-14T13:39:36.270Z,30.47
2018-11-14T13:42:04.505Z,29.43
2018-11-14T13:44:32.850Z,32.10
2018-11-14T13:47:01.096Z,33.90
2018-11-14T13:49:29.780Z,31.77
2018-11-14T13:51:57.811Z,31.33
2018-11-14T13:54:26.082Z,33.77
2018-11-14T13:56:54.314Z,34.23
2018-11-14T13:59:22.523Z,32.23
2018-11-14T14:01:50.718Z,31.77
2018-11-14T14:04:18.961Z,30.80
2018-11-14T14:06:47.319Z,32.33
2018-11-14T14:09:15.568Z,30.67
2018-11-14T14:11:43.741Z,31.00
2018-11-14T14:14:16.638Z,31.20
2018-11-14T14:16:45.363Z,33.00
2018-11-14T14:19:14.063Z,31.93
2018-11-14T14:21:42.311Z,32.00
2018-11-14T14:24:10.642Z,33.33
2018-11-14T14:26:39.334Z,31.87
2018-11-14T14:29:07.979Z,33.97
2018-11-14T14:31:36.486Z,34.63
2018-11-14T14:34:05.114Z,33.43
2018-11-14T14:36:33.379Z,32.90
2018-11-14T14:39:01.595Z,35.40
2018-11-14T14:41:29.845Z,35.23
2018-11-14T14:43:58.091Z,31.37
2018-11-14T14:46:27.016Z,31.80
2018-11-14T14:48:56.095Z,31.53
2018-11-14T14:51:24.223Z,34.73
2018-11-14T14:53:52.438Z,34.53
2018-11-14T14:56:20.756Z,35.97
2018-11-14T14:58:49.020Z,35.33
2018-11-14T15:01:18.174Z,36.57
2018-11-14T15:03:46.411Z,35.60
2018-11-14T15:06:14.870Z,37.30
2018-11-14T15:08:43.067Z,37.67
2018-11-14T15:11:11.255Z,36.37
2018-11-14T15:13:39.490Z,36.20
2018-11-14T15:16:07.678Z,36.97
2018-11-14T15:18:36.106Z,37.40
2018-11-14T15:21:04.825Z,36.03
2018-11-14T15:23:33.150Z,36.30
2018-11-14T15:26:01.373Z,36.63
2018-11-14T15:28:29.576Z,37.30
2018-11-14T15:30:58.351Z,37.40
2018-11-14T15:33:26.562Z,34.97
2018-11-14T15:35:54.829Z,35.60
2018-11-14T15:38:22.986Z,34.90
2018-11-14T15:40:51.206Z,36.53
2018-11-14T15:43:19.449Z,35.63
2018-11-14T15:45:47.839Z,38.23
2018-11-14T15:48:16.635Z,36.20
2018-11-14T15:50:44.823Z,35.17
2018-11-14T15:53:13.054Z,32.47
2018-11-14T15:55:41.270Z,33.30
2018-11-14T15:58:09.553Z,33.03
2018-11-14T16:00:37.710Z,33.97
2018-11-14T16:03:08.051Z,32.63
2018-11-14T16:05:36.388Z,31.97
2018-11-14T16:08:06.702Z,28.67
2018-11-14T16:10:35.190Z,27.00
2018-11-14T16:13:04.115Z,30.60
2018-11-14T16:15:34.666Z,31.37
2018-11-14T16:18:03.201Z,34.73
2018-11-14T16:20:31.333Z,36.80
2018-11-14T16:22:59.535Z,37.67
2018-11-14T16:25:28.266Z,38.13
2018-11-14T16:27:57.786Z,34.97
2018-11-14T16:30:27.321Z,33.20
2018-11-14T16:32:56.741Z,32.47
2018-11-14T16:35:26.416Z,30.50
2018-11-14T16:37:54.597Z,30.23
2018-11-14T16:40:53.657Z,30.67
2018-11-14T16:43:21.930Z,33.43
2018-11-14T16:45:50.294Z,32.43
2018-11-14T16:48:18.482Z,32.57
2018-11-14T16:50:46.778Z,34.50
2018-11-14T16:53:14.946Z,35.70
2018-11-14T16:55:43.253Z,31.43
2018-11-14T16:58:11.419Z,30.17
2018-11-14T17:00:39.898Z,26.07
2018-11-14T17:03:08.932Z,22.47
2018-11-14T17:05:37.338Z,20.97
2018-11-14T17:08:06.226Z,19.63
2018-11-14T17:10:34.377Z,19.47
2018-11-14T17:13:02.990Z,20.60
2018-11-14T17:15:31.501Z,19.87
2018-11-14T17:17:59.718Z,20.17
2018-11-14T17:20:28.167Z,19.90
2018-11-14T17:22:56.637Z,21.07
2018-11-14T17:25:24.885Z,23.50
2018-11-14T17:27:53.115Z,23.97
2018-11-14T17:30:24.054Z,23.33
2018-11-14T17:32:52.732Z,22.23
2018-11-14T17:35:20.974Z,22.63
2018-11-14T17:37:49.282Z,23.50
2018-11-14T17:40:21.686Z,22.63
2018-11-14T17:42:50.927Z,23.80
2018-11-14T17:45:20.791Z,24.03
2018-11-14T17:47:50.373Z,24.90
2018-11-14T17:50:22.276Z,22.67
2018-11-14T17:52:51.375Z,23.53
2018-11-14T17:55:20.521Z,23.57
2018-11-14T17:57:48.750Z,23.77
2018-11-14T18:00:18.629Z,23.83
2018-11-14T18:02:47.059Z,25.33
2018-11-14T18:05:16.527Z,25.63
2018-11-14T18:07:45.538Z,24.90
2018-11-14T18:10:16.001Z,25.80
2018-11-14T18:12:45.134Z,24.50
2018-11-14T18:15:13.431Z,25.43
2018-11-14T18:17:42.801Z,25.93
2018-11-14T18:20:13.494Z,25.03
2018-11-14T18:22:42.659Z,24.13
2018-11-14T18:25:11.258Z,24.53
2018-11-14T18:27:39.446Z,25.67
2018-11-14T18:30:09.766Z,25.93
2018-11-14T18:32:37.923Z,27.00
2018-11-14T18:35:07.679Z,27.40
2018-11-14T18:37:36.226Z,25.77
2018-11-14T18:40:04.452Z,26.63
2018-11-14T18:42:32.730Z,25.90
2018-11-14T18:45:01.150Z,25.67
2018-11-14T18:47:29.385Z,25.80
2018-11-14T18:49:57.667Z,25.07
2018-11-14T18:52:26.713Z,24.67
2018-11-14T18:54:54.902Z,24.30
2018-11-14T18:57:23.117Z,24.70
2018-11-14T18:59:51.399Z,24.27
2018-11-14T19:02:19.615Z,26.53
2018-11-14T19:04:47.979Z,24.97
2018-11-14T19:07:16.302Z,22.70
2018-11-14T19:09:44.614Z,23.37
2018-11-14T19:12:12.834Z,25.03
2018-11-14T19:14:41.081Z,23.33
2018-11-14T19:17:09.963Z,26.23
2018-11-14T19:19:38.181Z,24.57
2018-11-14T19:22:06.347Z,24.80
2018-11-14T19:24:34.675Z,24.37
2018-11-14T19:27:02.819Z,25.27
2018-11-14T19:29:31.058Z,24.27
2018-11-14T19:31:59.313Z,23.13
2018-11-14T19:34:27.436Z,23.87
2018-11-14T19:36:55.642Z,24.93
2018-11-14T19:39:23.922Z,24.27
2018-11-14T19:41:52.153Z,23.87
2018-11-14T19:44:20.371Z,23.53
2018-11-14T19:46:48.597Z,23.03
2018-11-14T19:49:16.994Z,23.30
2018-11-14T19:51:45.158Z,23.93
2018-11-14T19:54:14.511Z,23.53
2018-11-14T19:56:42.875Z,24.97
2018-11-14T19:59:11.490Z,23.77
2018-11-14T20:01:39.827Z,24.43
2018-11-14T20:04:08.046Z,25.07
2018-11-14T20:06:36.357Z,25.23
2018-11-14T20:09:08.318Z,24.67
2018-11-14T20:11:36.643Z,23.93
2018-11-14T20:14:04.943Z,23.97
2018-11-14T20:16:33.146Z,24.83
2018-11-14T20:19:01.891Z,24.37
2018-11-14T20:21:30.754Z,22.83
2018-11-14T20:23:58.999Z,21.53
2018-11-14T20:26:27.197Z,23.60
2018-11-14T20:28:55.351Z,22.70
2018-11-14T20:31:23.589Z,22.67
2018-11-14T20:33:52.174Z,24.60
2018-11-14T20:36:20.503Z,24.90
2018-11-14T20:38:48.794Z,22.67
2018-11-14T20:41:17.290Z,22.73
2018-11-14T20:43:45.638Z,23.47
2018-11-14T20:46:13.869Z,22.07
2018-11-14T20:48:48.861Z,21.97
2018-11-14T20:51:17.074Z,22.50
2018-11-14T20:53:45.274Z,22.47
2018-11-14T20:56:13.509Z,23.33
2018-11-14T20:58:41.754Z,22.10
2018-11-14T21:01:09.974Z,22.47
2018-11-14T21:03:38.179Z,22.70
2018-11-14T21:06:06.354Z,21.63
2018-11-14T21:08:34.586Z,22.10
2018-11-14T21:11:02.943Z,22.40
2018-11-14T21:13:31.358Z,21.40
2018-11-14T21:15:59.554Z,21.57
2018-11-14T21:18:27.779Z,21.97
2018-11-14T21:20:55.970Z,21.70
2018-11-14T21:23:24.178Z,21.10
2018-11-14T21:25:52.351Z,21.13
2018-11-14T21:28:20.585Z,21.20
2018-11-14T21:30:48.958Z,20.83
2018-11-14T21:33:17.210Z,20.93
2018-11-14T21:35:45.577Z,20.43
2018-11-14T21:38:13.793Z,20.60
2018-11-14T21:40:41.919Z,17.93
2018-11-14T21:43:10.561Z,17.63
2018-11-14T21:45:38.805Z,15.40
2018-11-14T21:48:11.474Z,15.07
2018-11-14T21:50:39.866Z,14.60
2018-11-14T21:53:08.094Z,14.20
2018-11-14T21:55:36.244Z,14.27
2018-11-14T21:58:04.478Z,14.17
2018-11-14T22:00:34.855Z,14.43
2018-11-14T22:03:03.838Z,13.60
2018-11-14T22:05:32.415Z,13.53
2018-11-14T22:08:00.637Z,13.23
2018-11-14T22:10:34.666Z,12.90
2018-11-14T22:13:03.735Z,13.20
2018-11-14T22:15:34.000Z,14.70
2018-11-14T22:18:02.342Z,14.43
2018-11-14T22:20:31.074Z,14.63
2018-11-14T22:22:59.258Z,15.47
2018-11-14T22:25:28.455Z,15.50
2018-11-14T22:27:56.895Z,14.57
2018-11-14T22:30:29.850Z,13.90
2018-11-14T22:32:58.098Z,15.33
2018-11-14T22:35:27.675Z,15.73
2018-11-14T22:37:55.845Z,15.50
2018-11-14T22:40:26.362Z,16.20
2018-11-14T22:42:54.594Z,17.67
2018-11-14T22:45:25.499Z,16.70
2018-11-14T22:47:54.090Z,18.00
2018-11-14T22:50:23.746Z,16.90
2018-11-14T22:52:52.346Z,19.50
2018-11-14T22:55:21.687Z,21.47
2018-11-14T22:57:50.986Z,19.57
2018-11-14T23:00:28.548Z,21.47
2018-11-14T23:02:58.023Z,18.70
2018-11-14T23:05:26.759Z,17.77
2018-11-14T23:07:55.706Z,19.10
2018-11-14T23:10:24.582Z,19.33
2018-11-14T23:12:52.890Z,19.67
2018-11-14T23:15:22.375Z,19.03
2018-11-14T23:17:50.656Z,18.30
2018-11-14T23:20:19.042Z,17.80
2018-11-14T23:22:47.749Z,18.67
2018-11-14T23:25:16.358Z,16.20
2018-11-14T23:27:45.751Z,16.80
2018-11-14T23:30:15.325Z,17.20
2018-11-14T23:32:44.656Z,18.33
2018-11-14T23:35:21.087Z,17.73
2018-11-14T23:37:50.530Z,16.87
2018-11-14T23:40:19.411Z,18.33
2018-11-14T23:42:48.187Z,18.03
2018-11-14T23:45:17.106Z,18.77
2018-11-14T23:47:46.077Z,18.13
2018-11-14T23:50:17.437Z,18.17
2018-11-14T23:52:46.682Z,18.50
2018-11-14T23:55:15.778Z,16.83
2018-11-14T23:57:44.287Z,17.80
